sensor_id;sensor_type;location;lat;lon;timestamp;P1;durP1;ratioP1;P2;durP2;ratioP2
84284;SDS011;74441;49.470;11.032;2024-01-27T00:02:18;4.22;;;1.85;;
84284;SDS011;74441;49.470;11.032;2024-01-27T00:04:43;3.37;;;1.70;;
84284;SDS011;74441;49.470;11.032;2024-01-27T00:07:08;3.60;;;2.10;;
84284;SDS011;74441;49.470;11.032;2024-01-27T00:09:33;3.33;;;1.80;;
84284;SDS011;74441;49.470;11.032;2024-01-27T00:11:59;4.45;;;2.30;;
84284;SDS011;74441;49.470;11.032;2024-01-27T00:14:24;4.72;;;1.92;;
84284;SDS011;74441;49.470;11.032;2024-01-27T00:16:49;4.40;;;2.08;;
84284;SDS011;74441;49.470;11.032;2024-01-27T00:19:15;5.20;;;2.00;;
84284;SDS011;74441;49.470;11.032;2024-01-27T00:21:41;4.00;;;2.10;;
84284;SDS011;74441;49.470;11.032;2024-01-27T00:24:06;4.03;;;2.00;;
84284;SDS011;74441;49.470;11.032;2024-01-27T00:26:31;5.97;;;1.97;;
84284;SDS011;74441;49.470;11.032;2024-01-27T00:28:57;6.70;;;2.00;;
84284;SDS011;74441;49.470;11.032;2024-01-27T00:31:22;4.82;;;2.15;;
84284;SDS011;74441;49.470;11.032;2024-01-27T00:33:47;4.60;;;1.90;;
84284;SDS011;74441;49.470;11.032;2024-01-27T00:36:13;5.03;;;2.10;;
84284;SDS011;74441;49.470;11.032;2024-01-27T00:38:38;4.40;;;1.90;;
84284;SDS011;74441;49.470;11.032;2024-01-27T00:41:04;4.25;;;2.17;;
84284;SDS011;74441;49.470;11.032;2024-01-27T00:43:29;6.13;;;2.28;;
84284;SDS011;74441;49.470;11.032;2024-01-27T00:45:55;4.47;;;2.10;;
84284;SDS011;74441;49.470;11.032;2024-01-27T00:48:21;6.22;;;2.47;;
84284;SDS011;74441;49.470;11.032;2024-01-27T00:50:47;4.05;;;2.25;;
84284;SDS011;74441;49.470;11.032;2024-01-27T00:53:12;4.57;;;2.25;;
84284;SDS011;74441;49.470;11.032;2024-01-27T00:55:38;4.47;;;1.90;;
84284;SDS011;74441;49.470;11.032;2024-01-27T00:58:03;4.70;;;2.17;;
84284;SDS011;74441;49.470;11.032;2024-01-27T01:00:28;6.70;;;2.67;;
84284;SDS011;74441;49.470;11.032;2024-01-27T01:02:54;4.30;;;2.03;;
84284;SDS011;74441;49.470;11.032;2024-01-27T01:05:19;3.17;;;2.03;;
84284;SDS011;74441;49.470;11.032;2024-01-27T01:07:44;4.80;;;2.20;;
84284;SDS011;74441;49.470;11.032;2024-01-27T01:10:09;3.17;;;2.03;;
84284;SDS011;74441;49.470;11.032;2024-01-27T01:12:35;3.40;;;1.90;;
84284;SDS011;74441;49.470;11.032;2024-01-27T01:15:00;4.15;;;2.13;;
84284;SDS011;74441;49.470;11.032;2024-01-27T01:17:25;5.43;;;2.33;;
84284;SDS011;74441;49.470;11.032;2024-01-27T01:19:51;3.17;;;1.90;;
84284;SDS011;74441;49.470;11.032;2024-01-27T01:22:16;5.05;;;2.10;;
84284;SDS011;74441;49.470;11.032;2024-01-27T01:24:41;2.67;;;1.70;;
84284;SDS011;74441;49.470;11.032;2024-01-27T01:27:07;4.88;;;2.30;;
84284;SDS011;74441;49.470;11.032;2024-01-27T01:29:32;5.60;;;2.03;;
84284;SDS011;74441;49.470;11.032;2024-01-27T01:31:57;5.90;;;2.10;;
84284;SDS011;74441;49.470;11.032;2024-01-27T01:34:23;5.65;;;2.05;;
84284;SDS011;74441;49.470;11.032;2024-01-27T01:36:48;3.20;;;2.10;;
84284;SDS011;74441;49.470;11.032;2024-01-27T01:39:14;5.07;;;2.05;;
84284;SDS011;74441;49.470;11.032;2024-01-27T01:41:39;6.88;;;2.33;;
84284;SDS011;74441;49.470;11.032;2024-01-27T01:44:05;4.47;;;1.90;;
84284;SDS011;74441;49.470;11.032;2024-01-27T01:46:30;4.45;;;2.05;;
84284;SDS011;74441;49.470;11.032;2024-01-27T01:48:56;4.03;;;1.90;;
84284;SDS011;74441;49.470;11.032;2024-01-27T01:51:21;5.28;;;2.33;;
84284;SDS011;74441;49.470;11.032;2024-01-27T01:53:47;3.75;;;2.00;;
84284;SDS011;74441;49.470;11.032;2024-01-27T01:56:14;5.38;;;2.40;;
84284;SDS011;74441;49.470;11.032;2024-01-27T01:58:39;3.72;;;2.20;;
84284;SDS011;74441;49.470;11.032;2024-01-27T02:01:05;4.93;;;2.30;;
84284;SDS011;74441;49.470;11.032;2024-01-27T02:03:30;3.63;;;1.97;;
84284;SDS011;74441;49.470;11.032;2024-01-27T02:05:55;4.00;;;2.23;;
84284;SDS011;74441;49.470;11.032;2024-01-27T02:08:21;4.93;;;2.25;;
84284;SDS011;74441;49.470;11.032;2024-01-27T02:10:46;5.78;;;2.05;;
84284;SDS011;74441;49.470;11.032;2024-01-27T02:13:18;4.60;;;2.00;;
84284;SDS011;74441;49.470;11.032;2024-01-27T02:15:45;3.97;;;2.05;;
84284;SDS011;74441;49.470;11.032;2024-01-27T02:18:11;4.90;;;2.22;;
84284;SDS011;74441;49.470;11.032;2024-01-27T02:20:36;4.15;;;2.10;;
84284;SDS011;74441;49.470;11.032;2024-01-27T02:23:02;4.13;;;2.10;;
84284;SDS011;74441;49.470;11.032;2024-01-27T02:25:29;5.47;;;2.10;;
84284;SDS011;74441;49.470;11.032;2024-01-27T02:27:55;4.95;;;2.15;;
84284;SDS011;74441;49.470;11.032;2024-01-27T02:30:20;3.57;;;2.20;;
84284;SDS011;74441;49.470;11.032;2024-01-27T02:32:45;4.23;;;2.10;;
84284;SDS011;74441;49.470;11.032;2024-01-27T02:35:11;6.17;;;2.10;;
84284;SDS011;74441;49.470;11.032;2024-01-27T02:37:37;6.63;;;2.20;;
84284;SDS011;74441;49.470;11.032;2024-01-27T02:40:03;4.90;;;2.00;;
84284;SDS011;74441;49.470;11.032;2024-01-27T02:42:28;3.90;;;1.98;;
84284;SDS011;74441;49.470;11.032;2024-01-27T02:44:53;6.53;;;2.30;;
84284;SDS011;74441;49.470;11.032;2024-01-27T02:47:19;4.77;;;2.33;;
84284;SDS011;74441;49.470;11.032;2024-01-27T02:49:44;3.37;;;2.10;;
84284;SDS011;74441;49.470;11.032;2024-01-27T02:52:09;5.80;;;2.17;;
84284;SDS011;74441;49.470;11.032;2024-01-27T02:54:35;4.38;;;2.28;;
84284;SDS011;74441;49.470;11.032;2024-01-27T02:57:00;4.60;;;2.22;;
84284;SDS011;74441;49.470;11.032;2024-01-27T02:59:26;4.45;;;2.30;;
84284;SDS011;74441;49.470;11.032;2024-01-27T03:01:51;5.47;;;2.57;;
84284;SDS011;74441;49.470;11.032;2024-01-27T03:04:16;4.17;;;2.17;;
84284;SDS011;74441;49.470;11.032;2024-01-27T03:06:41;6.03;;;2.30;;
84284;SDS011;74441;49.470;11.032;2024-01-27T03:09:07;4.07;;;2.60;;
84284;SDS011;74441;49.470;11.032;2024-01-27T03:11:32;5.30;;;1.85;;
84284;SDS011;74441;49.470;11.032;2024-01-27T03:13:58;3.93;;;2.10;;
84284;SDS011;74441;49.470;11.032;2024-01-27T03:16:23;2.88;;;1.90;;
84284;SDS011;74441;49.470;11.032;2024-01-27T03:18:49;3.58;;;2.08;;
84284;SDS011;74441;49.470;11.032;2024-01-27T03:21:14;3.67;;;2.20;;
84284;SDS011;74441;49.470;11.032;2024-01-27T03:23:40;3.58;;;2.30;;
84284;SDS011;74441;49.470;11.032;2024-01-27T03:26:05;3.70;;;2.00;;
84284;SDS011;74441;49.470;11.032;2024-01-27T03:28:30;3.80;;;2.13;;
84284;SDS011;74441;49.470;11.032;2024-01-27T03:30:55;5.67;;;2.70;;
84284;SDS011;74441;49.470;11.032;2024-01-27T03:33:21;4.80;;;2.20;;
84284;SDS011;74441;49.470;11.032;2024-01-27T03:35:47;5.30;;;2.38;;
84284;SDS011;74441;49.470;11.032;2024-01-27T03:38:13;4.57;;;2.50;;
84284;SDS011;74441;49.470;11.032;2024-01-27T03:40:38;4.47;;;2.03;;
84284;SDS011;74441;49.470;11.032;2024-01-27T03:43:03;4.33;;;2.20;;
84284;SDS011;74441;49.470;11.032;2024-01-27T03:45:29;5.57;;;2.30;;
84284;SDS011;74441;49.470;11.032;2024-01-27T03:47:54;4.67;;;2.20;;
84284;SDS011;74441;49.470;11.032;2024-01-27T03:50:19;4.55;;;2.30;;
84284;SDS011;74441;49.470;11.032;2024-01-27T03:52:45;4.17;;;2.10;;
84284;SDS011;74441;49.470;11.032;2024-01-27T03:55:10;6.15;;;2.10;;
84284;SDS011;74441;49.470;11.032;2024-01-27T03:57:35;5.75;;;2.33;;
84284;SDS011;74441;49.470;11.032;2024-01-27T04:00:01;4.53;;;2.38;;
84284;SDS011;74441;49.470;11.032;2024-01-27T04:02:26;4.32;;;2.03;;
84284;SDS011;74441;49.470;11.032;2024-01-27T04:04:51;4.10;;;2.33;;
84284;SDS011;74441;49.470;11.032;2024-01-27T04:07:17;4.82;;;2.50;;
84284;SDS011;74441;49.470;11.032;2024-01-27T04:09:42;5.90;;;2.22;;
84284;SDS011;74441;49.470;11.032;2024-01-27T04:12:07;5.28;;;2.50;;
84284;SDS011;74441;49.470;11.032;2024-01-27T04:14:33;2.75;;;1.98;;
84284;SDS011;74441;49.470;11.032;2024-01-27T04:16:58;5.40;;;2.63;;
84284;SDS011;74441;49.470;11.032;2024-01-27T04:19:24;3.17;;;2.20;;
84284;SDS011;74441;49.470;11.032;2024-01-27T04:21:49;3.93;;;2.30;;
84284;SDS011;74441;49.470;11.032;2024-01-27T04:24:14;3.63;;;2.47;;
84284;SDS011;74441;49.470;11.032;2024-01-27T04:26:39;5.43;;;2.40;;
84284;SDS011;74441;49.470;11.032;2024-01-27T04:29:05;4.73;;;2.20;;
84284;SDS011;74441;49.470;11.032;2024-01-27T04:31:30;5.63;;;2.60;;
84284;SDS011;74441;49.470;11.032;2024-01-27T04:33:58;4.43;;;2.50;;
84284;SDS011;74441;49.470;11.032;2024-01-27T04:36:27;4.13;;;2.38;;
84284;SDS011;74441;49.470;11.032;2024-01-27T04:38:53;3.22;;;2.20;;
84284;SDS011;74441;49.470;11.032;2024-01-27T04:41:19;4.13;;;2.50;;
84284;SDS011;74441;49.470;11.032;2024-01-27T04:43:44;4.60;;;2.37;;
84284;SDS011;74441;49.470;11.032;2024-01-27T04:46:09;4.27;;;2.40;;
84284;SDS011;74441;49.470;11.032;2024-01-27T04:48:35;5.50;;;2.40;;
84284;SDS011;74441;49.470;11.032;2024-01-27T04:51:00;6.40;;;2.80;;
84284;SDS011;74441;49.470;11.032;2024-01-27T04:53:25;4.47;;;2.42;;
84284;SDS011;74441;49.470;11.032;2024-01-27T04:55:51;5.53;;;2.77;;
84284;SDS011;74441;49.470;11.032;2024-01-27T04:58:16;5.60;;;3.00;;
84284;SDS011;74441;49.470;11.032;2024-01-27T05:00:41;5.07;;;2.70;;
84284;SDS011;74441;49.470;11.032;2024-01-27T05:03:07;4.47;;;2.67;;
84284;SDS011;74441;49.470;11.032;2024-01-27T05:05:38;4.85;;;2.90;;
84284;SDS011;74441;49.470;11.032;2024-01-27T05:08:06;4.93;;;2.50;;
84284;SDS011;74441;49.470;11.032;2024-01-27T05:10:31;5.97;;;3.53;;
84284;SDS011;74441;49.470;11.032;2024-01-27T05:12:56;8.65;;;4.38;;
84284;SDS011;74441;49.470;11.032;2024-01-27T05:15:22;5.35;;;3.50;;
84284;SDS011;74441;49.470;11.032;2024-01-27T05:17:47;6.57;;;3.72;;
84284;SDS011;74441;49.470;11.032;2024-01-27T05:20:12;8.75;;;4.50;;
84284;SDS011;74441;49.470;11.032;2024-01-27T05:22:38;9.35;;;5.07;;
84284;SDS011;74441;49.470;11.032;2024-01-27T05:25:03;11.07;;;5.90;;
84284;SDS011;74441;49.470;11.032;2024-01-27T05:27:29;9.07;;;5.38;;
84284;SDS011;74441;49.470;11.032;2024-01-27T05:29:55;6.40;;;4.18;;
84284;SDS011;74441;49.470;11.032;2024-01-27T05:32:20;6.73;;;4.00;;
84284;SDS011;74441;49.470;11.032;2024-01-27T05:34:45;7.37;;;3.30;;
84284;SDS011;74441;49.470;11.032;2024-01-27T05:37:10;4.13;;;2.63;;
84284;SDS011;74441;49.470;11.032;2024-01-27T05:39:37;4.43;;;2.38;;
84284;SDS011;74441;49.470;11.032;2024-01-27T05:42:05;6.25;;;2.78;;
84284;SDS011;74441;49.470;11.032;2024-01-27T05:44:31;5.25;;;2.70;;
84284;SDS011;74441;49.470;11.032;2024-01-27T05:46:56;6.40;;;3.53;;
84284;SDS011;74441;49.470;11.032;2024-01-27T05:49:22;5.83;;;3.30;;
84284;SDS011;74441;49.470;11.032;2024-01-27T05:51:47;5.33;;;2.73;;
84284;SDS011;74441;49.470;11.032;2024-01-27T05:54:13;4.95;;;2.60;;
84284;SDS011;74441;49.470;11.032;2024-01-27T05:56:41;5.72;;;2.75;;
84284;SDS011;74441;49.470;11.032;2024-01-27T05:59:07;5.70;;;2.90;;
84284;SDS011;74441;49.470;11.032;2024-01-27T06:01:32;4.80;;;2.77;;
84284;SDS011;74441;49.470;11.032;2024-01-27T06:03:57;5.47;;;3.37;;
84284;SDS011;74441;49.470;11.032;2024-01-27T06:06:23;5.60;;;2.95;;
84284;SDS011;74441;49.470;11.032;2024-01-27T06:08:49;5.35;;;2.55;;
84284;SDS011;74441;49.470;11.032;2024-01-27T06:11:14;6.03;;;2.80;;
84284;SDS011;74441;49.470;11.032;2024-01-27T06:13:39;4.22;;;2.50;;
84284;SDS011;74441;49.470;11.032;2024-01-27T06:16:08;5.63;;;2.70;;
84284;SDS011;74441;49.470;11.032;2024-01-27T06:18:34;5.47;;;2.75;;
84284;SDS011;74441;49.470;11.032;2024-01-27T06:21:00;5.20;;;2.78;;
84284;SDS011;74441;49.470;11.032;2024-01-27T06:23:25;5.60;;;3.08;;
84284;SDS011;74441;49.470;11.032;2024-01-27T06:25:50;6.28;;;2.75;;
84284;SDS011;74441;49.470;11.032;2024-01-27T06:28:16;4.93;;;2.60;;
84284;SDS011;74441;49.470;11.032;2024-01-27T06:30:41;4.60;;;2.67;;
84284;SDS011;74441;49.470;11.032;2024-01-27T06:33:07;4.88;;;2.70;;
84284;SDS011;74441;49.470;11.032;2024-01-27T06:35:32;4.70;;;2.50;;
84284;SDS011;74441;49.470;11.032;2024-01-27T06:37:57;5.10;;;2.30;;
84284;SDS011;74441;49.470;11.032;2024-01-27T06:40:23;4.65;;;2.40;;
84284;SDS011;74441;49.470;11.032;2024-01-27T06:42:48;6.18;;;2.60;;
84284;SDS011;74441;49.470;11.032;2024-01-27T06:45:14;5.43;;;2.80;;
84284;SDS011;74441;49.470;11.032;2024-01-27T06:47:39;8.35;;;3.10;;
84284;SDS011;74441;49.470;11.032;2024-01-27T06:50:04;7.33;;;3.17;;
84284;SDS011;74441;49.470;11.032;2024-01-27T06:52:30;4.47;;;2.80;;
84284;SDS011;74441;49.470;11.032;2024-01-27T06:54:55;4.03;;;2.60;;
84284;SDS011;74441;49.470;11.032;2024-01-27T06:57:22;7.25;;;4.10;;
84284;SDS011;74441;49.470;11.032;2024-01-27T06:59:48;6.07;;;3.28;;
84284;SDS011;74441;49.470;11.032;2024-01-27T07:02:19;4.93;;;2.95;;
84284;SDS011;74441;49.470;11.032;2024-01-27T07:04:47;6.57;;;2.90;;
84284;SDS011;74441;49.470;11.032;2024-01-27T07:07:12;5.20;;;2.92;;
84284;SDS011;74441;49.470;11.032;2024-01-27T07:09:38;5.68;;;3.00;;
84284;SDS011;74441;49.470;11.032;2024-01-27T07:12:03;6.20;;;3.10;;
84284;SDS011;74441;49.470;11.032;2024-01-27T07:14:29;5.45;;;2.90;;
84284;SDS011;74441;49.470;11.032;2024-01-27T07:16:54;4.32;;;2.58;;
84284;SDS011;74441;49.470;11.032;2024-01-27T07:19:19;6.07;;;2.97;;
84284;SDS011;74441;49.470;11.032;2024-01-27T07:21:45;6.00;;;3.00;;
84284;SDS011;74441;49.470;11.032;2024-01-27T07:24:10;6.30;;;2.70;;
84284;SDS011;74441;49.470;11.032;2024-01-27T07:26:35;5.53;;;2.75;;
84284;SDS011;74441;49.470;11.032;2024-01-27T07:29:00;6.73;;;3.20;;
84284;SDS011;74441;49.470;11.032;2024-01-27T07:31:26;4.90;;;2.75;;
84284;SDS011;74441;49.470;11.032;2024-01-27T07:33:51;6.00;;;2.70;;
84284;SDS011;74441;49.470;11.032;2024-01-27T07:36:17;5.55;;;3.70;;
84284;SDS011;74441;49.470;11.032;2024-01-27T07:38:42;6.07;;;3.20;;
84284;SDS011;74441;49.470;11.032;2024-01-27T07:41:07;5.05;;;2.90;;
84284;SDS011;74441;49.470;11.032;2024-01-27T07:43:33;5.37;;;3.27;;
84284;SDS011;74441;49.470;11.032;2024-01-27T07:45:58;6.43;;;3.28;;
84284;SDS011;74441;49.470;11.032;2024-01-27T07:48:23;4.22;;;2.58;;
84284;SDS011;74441;49.470;11.032;2024-01-27T07:50:49;5.23;;;2.60;;
84284;SDS011;74441;49.470;11.032;2024-01-27T07:53:15;5.22;;;2.80;;
84284;SDS011;74441;49.470;11.032;2024-01-27T07:55:41;5.30;;;3.10;;
84284;SDS011;74441;49.470;11.032;2024-01-27T07:58:06;5.75;;;2.70;;
84284;SDS011;74441;49.470;11.032;2024-01-27T08:00:31;5.40;;;2.90;;
84284;SDS011;74441;49.470;11.032;2024-01-27T08:02:57;6.30;;;2.80;;
84284;SDS011;74441;49.470;11.032;2024-01-27T08:05:23;6.50;;;2.63;;
84284;SDS011;74441;49.470;11.032;2024-01-27T08:07:48;7.53;;;4.15;;
84284;SDS011;74441;49.470;11.032;2024-01-27T08:10:13;6.78;;;3.28;;
84284;SDS011;74441;49.470;11.032;2024-01-27T08:12:39;5.33;;;3.17;;
84284;SDS011;74441;49.470;11.032;2024-01-27T08:15:04;5.90;;;3.27;;
84284;SDS011;74441;49.470;11.032;2024-01-27T08:17:30;6.15;;;3.15;;
84284;SDS011;74441;49.470;11.032;2024-01-27T08:19:55;6.73;;;3.27;;
84284;SDS011;74441;49.470;11.032;2024-01-27T08:22:21;5.30;;;3.07;;
84284;SDS011;74441;49.470;11.032;2024-01-27T08:24:46;5.27;;;3.30;;
84284;SDS011;74441;49.470;11.032;2024-01-27T08:27:11;8.00;;;3.53;;
84284;SDS011;74441;49.470;11.032;2024-01-27T08:29:37;7.10;;;3.10;;
84284;SDS011;74441;49.470;11.032;2024-01-27T08:32:02;5.80;;;3.78;;
84284;SDS011;74441;49.470;11.032;2024-01-27T08:34:27;6.65;;;4.00;;
84284;SDS011;74441;49.470;11.032;2024-01-27T08:36:53;5.90;;;3.22;;
84284;SDS011;74441;49.470;11.032;2024-01-27T08:39:18;6.38;;;3.75;;
84284;SDS011;74441;49.470;11.032;2024-01-27T08:41:43;6.80;;;3.10;;
84284;SDS011;74441;49.470;11.032;2024-01-27T08:44:09;6.38;;;3.10;;
84284;SDS011;74441;49.470;11.032;2024-01-27T08:46:34;5.72;;;3.03;;
84284;SDS011;74441;49.470;11.032;2024-01-27T08:48:59;5.97;;;3.50;;
84284;SDS011;74441;49.470;11.032;2024-01-27T08:51:25;6.30;;;2.90;;
84284;SDS011;74441;49.470;11.032;2024-01-27T08:53:50;5.75;;;3.03;;
84284;SDS011;74441;49.470;11.032;2024-01-27T08:56:16;5.50;;;3.00;;
84284;SDS011;74441;49.470;11.032;2024-01-27T08:58:43;6.57;;;3.38;;
84284;SDS011;74441;49.470;11.032;2024-01-27T09:01:09;7.70;;;3.67;;
84284;SDS011;74441;49.470;11.032;2024-01-27T09:03:35;5.30;;;3.05;;
84284;SDS011;74441;49.470;11.032;2024-01-27T09:06:00;8.20;;;3.70;;
84284;SDS011;74441;49.470;11.032;2024-01-27T09:08:26;5.93;;;3.70;;
84284;SDS011;74441;49.470;11.032;2024-01-27T09:10:51;6.53;;;3.73;;
84284;SDS011;74441;49.470;11.032;2024-01-27T09:13:16;5.73;;;3.70;;
84284;SDS011;74441;49.470;11.032;2024-01-27T09:15:42;5.35;;;3.03;;
84284;SDS011;74441;49.470;11.032;2024-01-27T09:18:07;5.95;;;2.75;;
84284;SDS011;74441;49.470;11.032;2024-01-27T09:20:32;6.50;;;3.08;;
84284;SDS011;74441;49.470;11.032;2024-01-27T09:22:58;7.20;;;2.87;;
84284;SDS011;74441;49.470;11.032;2024-01-27T09:25:23;5.70;;;2.53;;
84284;SDS011;74441;49.470;11.032;2024-01-27T09:27:49;5.68;;;2.90;;
84284;SDS011;74441;49.470;11.032;2024-01-27T09:30:15;6.30;;;2.70;;
84284;SDS011;74441;49.470;11.032;2024-01-27T09:32:40;6.20;;;2.78;;
84284;SDS011;74441;49.470;11.032;2024-01-27T09:35:06;5.10;;;2.40;;
84284;SDS011;74441;49.470;11.032;2024-01-27T09:37:31;6.18;;;2.45;;
84284;SDS011;74441;49.470;11.032;2024-01-27T09:39:58;5.93;;;2.50;;
84284;SDS011;74441;49.470;11.032;2024-01-27T09:42:25;6.68;;;3.50;;
84284;SDS011;74441;49.470;11.032;2024-01-27T09:44:51;5.90;;;3.08;;
84284;SDS011;74441;49.470;11.032;2024-01-27T09:47:19;7.10;;;3.13;;
84284;SDS011;74441;49.470;11.032;2024-01-27T09:49:44;6.63;;;2.42;;
84284;SDS011;74441;49.470;11.032;2024-01-27T09:52:10;6.78;;;2.65;;
84284;SDS011;74441;49.470;11.032;2024-01-27T09:54:36;4.97;;;2.80;;
84284;SDS011;74441;49.470;11.032;2024-01-27T09:57:01;7.80;;;2.80;;
84284;SDS011;74441;49.470;11.032;2024-01-27T09:59:27;5.90;;;2.80;;
84284;SDS011;74441;49.470;11.032;2024-01-27T10:01:53;6.68;;;2.85;;
84284;SDS011;74441;49.470;11.032;2024-01-27T10:04:22;6.18;;;3.00;;
84284;SDS011;74441;49.470;11.032;2024-01-27T10:06:48;5.70;;;2.78;;
84284;SDS011;74441;49.470;11.032;2024-01-27T10:09:15;6.07;;;2.63;;
84284;SDS011;74441;49.470;11.032;2024-01-27T10:11:42;5.68;;;2.92;;
84284;SDS011;74441;49.470;11.032;2024-01-27T10:14:11;6.88;;;3.17;;
84284;SDS011;74441;49.470;11.032;2024-01-27T10:16:39;6.10;;;2.23;;
84284;SDS011;74441;49.470;11.032;2024-01-27T10:19:12;5.85;;;2.67;;
84284;SDS011;74441;49.470;11.032;2024-01-27T10:21:40;5.00;;;2.42;;
84284;SDS011;74441;49.470;11.032;2024-01-27T10:24:05;6.40;;;2.17;;
84284;SDS011;74441;49.470;11.032;2024-01-27T10:26:31;5.63;;;2.67;;
84284;SDS011;74441;49.470;11.032;2024-01-27T10:28:57;7.35;;;2.50;;
84284;SDS011;74441;49.470;11.032;2024-01-27T10:31:26;4.25;;;2.60;;
84284;SDS011;74441;49.470;11.032;2024-01-27T10:33:52;6.97;;;3.10;;
84284;SDS011;74441;49.470;11.032;2024-01-27T10:38:51;7.50;;;2.40;;
84284;SDS011;74441;49.470;11.032;2024-01-27T10:41:23;5.60;;;2.60;;
84284;SDS011;74441;49.470;11.032;2024-01-27T10:43:50;5.93;;;2.45;;
84284;SDS011;74441;49.470;11.032;2024-01-27T10:46:20;7.95;;;2.80;;
84284;SDS011;74441;49.470;11.032;2024-01-27T10:51:15;6.20;;;3.28;;
84284;SDS011;74441;49.470;11.032;2024-01-27T10:53:41;7.30;;;2.90;;
84284;SDS011;74441;49.470;11.032;2024-01-27T10:56:08;6.78;;;2.60;;
84284;SDS011;74441;49.470;11.032;2024-01-27T10:58:35;9.43;;;3.28;;
84284;SDS011;74441;49.470;11.032;2024-01-27T11:01:08;6.68;;;2.90;;
84284;SDS011;74441;49.470;11.032;2024-01-27T11:03:34;7.25;;;2.55;;
84284;SDS011;74441;49.470;11.032;2024-01-27T11:06:05;5.30;;;2.38;;
84284;SDS011;74441;49.470;11.032;2024-01-27T11:08:32;5.65;;;2.53;;
84284;SDS011;74441;49.470;11.032;2024-01-27T11:10:58;6.10;;;3.08;;
84284;SDS011;74441;49.470;11.032;2024-01-27T11:13:23;7.63;;;2.80;;
84284;SDS011;74441;49.470;11.032;2024-01-27T11:15:53;7.45;;;3.03;;
84284;SDS011;74441;49.470;11.032;2024-01-27T11:18:19;7.80;;;2.70;;
84284;SDS011;74441;49.470;11.032;2024-01-27T11:20:44;6.28;;;2.50;;
84284;SDS011;74441;49.470;11.032;2024-01-27T11:23:10;6.75;;;2.88;;
84284;SDS011;74441;49.470;11.032;2024-01-27T11:25:37;6.75;;;2.95;;
84284;SDS011;74441;49.470;11.032;2024-01-27T11:28:10;6.80;;;2.90;;
84284;SDS011;74441;49.470;11.032;2024-01-27T11:30:39;5.07;;;2.30;;
84284;SDS011;74441;49.470;11.032;2024-01-27T11:33:06;4.35;;;2.05;;
84284;SDS011;74441;49.470;11.032;2024-01-27T11:35:33;5.95;;;2.70;;
84284;SDS011;74441;49.470;11.032;2024-01-27T11:37:58;7.87;;;2.83;;
84284;SDS011;74441;49.470;11.032;2024-01-27T11:40:23;7.40;;;2.80;;
84284;SDS011;74441;49.470;11.032;2024-01-27T11:42:55;7.00;;;2.90;;
84284;SDS011;74441;49.470;11.032;2024-01-27T11:45:21;7.07;;;2.70;;
84284;SDS011;74441;49.470;11.032;2024-01-27T11:47:47;9.25;;;3.03;;
84284;SDS011;74441;49.470;11.032;2024-01-27T11:50:12;6.43;;;2.55;;
84284;SDS011;74441;49.470;11.032;2024-01-27T11:52:38;6.70;;;2.87;;
84284;SDS011;74441;49.470;11.032;2024-01-27T11:55:03;6.55;;;2.70;;
84284;SDS011;74441;49.470;11.032;2024-01-27T11:57:29;7.07;;;2.53;;
84284;SDS011;74441;49.470;11.032;2024-01-27T11:59:54;8.13;;;2.90;;
84284;SDS011;74441;49.470;11.032;2024-01-27T12:02:20;4.93;;;2.55;;
84284;SDS011;74441;49.470;11.032;2024-01-27T12:04:47;5.10;;;2.40;;
84284;SDS011;74441;49.470;11.032;2024-01-27T12:07:12;7.18;;;3.47;;
84284;SDS011;74441;49.470;11.032;2024-01-27T12:09:39;5.82;;;2.25;;
84284;SDS011;74441;49.470;11.032;2024-01-27T12:12:04;5.87;;;2.10;;
84284;SDS011;74441;49.470;11.032;2024-01-27T12:14:46;5.57;;;2.55;;
84284;SDS011;74441;49.470;11.032;2024-01-27T12:17:14;6.45;;;2.47;;
84284;SDS011;74441;49.470;11.032;2024-01-27T12:19:45;10.02;;;3.17;;
84284;SDS011;74441;49.470;11.032;2024-01-27T12:24:51;6.90;;;2.40;;
84284;SDS011;74441;49.470;11.032;2024-01-27T12:27:17;8.43;;;3.10;;
84284;SDS011;74441;49.470;11.032;2024-01-27T12:29:42;4.95;;;2.20;;
84284;SDS011;74441;49.470;11.032;2024-01-27T12:32:08;4.80;;;2.35;;
84284;SDS011;74441;49.470;11.032;2024-01-27T12:34:38;6.13;;;2.42;;
84284;SDS011;74441;49.470;11.032;2024-01-27T12:37:04;5.32;;;2.28;;
84284;SDS011;74441;49.470;11.032;2024-01-27T12:39:30;6.63;;;2.42;;
84284;SDS011;74441;49.470;11.032;2024-01-27T12:41:56;6.05;;;2.60;;
84284;SDS011;74441;49.470;11.032;2024-01-27T12:44:21;3.70;;;2.20;;
84284;SDS011;74441;49.470;11.032;2024-01-27T12:46:46;6.22;;;2.80;;
84284;SDS011;74441;49.470;11.032;2024-01-27T12:49:12;7.37;;;2.27;;
84284;SDS011;74441;49.470;11.032;2024-01-27T12:51:37;4.27;;;2.07;;
84284;SDS011;74441;49.470;11.032;2024-01-27T12:54:02;6.30;;;2.60;;
84284;SDS011;74441;49.470;11.032;2024-01-27T12:56:27;4.85;;;2.22;;
84284;SDS011;74441;49.470;11.032;2024-01-27T12:58:53;4.13;;;1.97;;
84284;SDS011;74441;49.470;11.032;2024-01-27T13:01:18;6.47;;;2.55;;
84284;SDS011;74441;49.470;11.032;2024-01-27T13:03:44;6.18;;;2.28;;
84284;SDS011;74441;49.470;11.032;2024-01-27T13:06:09;6.38;;;2.70;;
84284;SDS011;74441;49.470;11.032;2024-01-27T13:08:35;6.90;;;3.10;;
84284;SDS011;74441;49.470;11.032;2024-01-27T13:11:01;5.75;;;2.33;;
84284;SDS011;74441;49.470;11.032;2024-01-27T13:13:27;5.72;;;2.53;;
84284;SDS011;74441;49.470;11.032;2024-01-27T13:15:53;4.60;;;2.20;;
84284;SDS011;74441;49.470;11.032;2024-01-27T13:18:18;8.50;;;2.35;;
84284;SDS011;74441;49.470;11.032;2024-01-27T13:20:43;5.95;;;2.13;;
84284;SDS011;74441;49.470;11.032;2024-01-27T13:23:09;6.30;;;2.20;;
84284;SDS011;74441;49.470;11.032;2024-01-27T13:25:34;4.18;;;2.00;;
84284;SDS011;74441;49.470;11.032;2024-01-27T13:27:59;6.38;;;2.38;;
84284;SDS011;74441;49.470;11.032;2024-01-27T13:30:25;4.27;;;2.07;;
84284;SDS011;74441;49.470;11.032;2024-01-27T13:32:51;5.55;;;2.70;;
84284;SDS011;74441;49.470;11.032;2024-01-27T13:35:17;6.73;;;2.37;;
84284;SDS011;74441;49.470;11.032;2024-01-27T13:37:42;4.97;;;2.40;;
84284;SDS011;74441;49.470;11.032;2024-01-27T13:40:08;5.25;;;2.15;;
84284;SDS011;74441;49.470;11.032;2024-01-27T13:42:36;4.05;;;2.15;;
84284;SDS011;74441;49.470;11.032;2024-01-27T13:45:02;5.43;;;2.30;;
84284;SDS011;74441;49.470;11.032;2024-01-27T13:47:28;6.80;;;2.55;;
84284;SDS011;74441;49.470;11.032;2024-01-27T13:49:53;5.93;;;2.37;;
84284;SDS011;74441;49.470;11.032;2024-01-27T13:52:18;5.22;;;2.08;;
84284;SDS011;74441;49.470;11.032;2024-01-27T13:54:44;4.60;;;2.10;;
84284;SDS011;74441;49.470;11.032;2024-01-27T13:57:09;4.90;;;2.10;;
84284;SDS011;74441;49.470;11.032;2024-01-27T13:59:35;5.40;;;2.55;;
84284;SDS011;74441;49.470;11.032;2024-01-27T14:02:01;5.22;;;2.10;;
84284;SDS011;74441;49.470;11.032;2024-01-27T14:04:26;4.10;;;2.30;;
84284;SDS011;74441;49.470;11.032;2024-01-27T14:06:52;5.73;;;2.37;;
84284;SDS011;74441;49.470;11.032;2024-01-27T14:09:21;6.28;;;2.50;;
84284;SDS011;74441;49.470;11.032;2024-01-27T14:11:47;7.38;;;2.85;;
84284;SDS011;74441;49.470;11.032;2024-01-27T14:14:12;5.35;;;2.50;;
84284;SDS011;74441;49.470;11.032;2024-01-27T14:16:38;5.68;;;2.70;;
84284;SDS011;74441;49.470;11.032;2024-01-27T14:19:03;6.07;;;2.60;;
84284;SDS011;74441;49.470;11.032;2024-01-27T14:21:28;5.68;;;2.75;;
84284;SDS011;74441;49.470;11.032;2024-01-27T14:23:54;5.53;;;2.23;;
84284;SDS011;74441;49.470;11.032;2024-01-27T14:26:26;5.47;;;2.28;;
84284;SDS011;74441;49.470;11.032;2024-01-27T14:28:53;3.83;;;2.05;;
84284;SDS011;74441;49.470;11.032;2024-01-27T14:31:18;7.38;;;2.45;;
84284;SDS011;74441;49.470;11.032;2024-01-27T14:33:44;4.13;;;1.80;;